Time;durP1;ratioP1;P1;durP2;ratioP2;P2;SDS_P1;SDS_P2;PMS_P1;PMS_P2;Temp;Humidity;BMP_temperature;BMP_pressure;BME280_temperature;BME280_humidity;BME280_pressure;Samples;Min_cycle;Max_cycle;Signal;HPM_P1;HPM_P2
2023/06/06 00:00:41;;;;;;;8.03;6.70;;;14.50;72.50;;;;;;5024300;28;20180;-55
2023/06/06 00:03:06;;;;;;;12.30;7.80;;;14.40;73.10;;;;;;5022330;28;20488;-55
2023/06/06 00:05:33;;;;;;;8.97;6.90;;;14.40;73.80;;;;;;5028974;28;20422;-57
2023/06/06 00:07:59;;;;;;;10.70;7.20;;;14.30;74.70;;;;;;5022808;28;20191;-55
2023/06/06 00:10:25;;;;;;;9.67;7.40;;;14.30;75.20;;;;;;5019593;28;20485;-56
2023/06/06 00:12:52;;;;;;;10.17;7.03;;;14.30;75.50;;;;;;5027623;28;20207;-57
2023/06/06 00:15:19;;;;;;;12.90;6.90;;;14.30;75.60;;;;;;5026266;28;20434;-56
2023/06/06 00:17:48;;;;;;;8.97;6.90;;;14.30;76.00;;;;;;5026288;28;20430;-56
2023/06/06 00:20:14;;;;;;;9.30;6.80;;;14.30;76.50;;;;;;5024611;28;20435;-56
2023/06/06 00:22:40;;;;;;;10.57;6.73;;;14.20;77.20;;;;;;5025279;28;20470;-58
2023/06/06 00:25:06;;;;;;;9.03;6.17;;;14.20;78.10;;;;;;5024731;28;20198;-54
2023/06/06 00:27:36;;;;;;;10.60;6.53;;;14.10;79.00;;;;;;5027031;28;22000;-55
2023/06/06 00:30:03;;;;;;;10.00;6.83;;;14.10;79.50;;;;;;5022621;28;20444;-54
2023/06/06 00:32:28;;;;;;;6.17;5.50;;;14.00;80.30;;;;;;5027716;28;21077;-54
2023/06/06 00:34:55;;;;;;;7.20;6.27;;;14.00;82.30;;;;;;5027571;28;20458;-54
2023/06/06 00:37:20;;;;;;;7.97;6.60;;;13.90;86.30;;;;;;5024342;28;20641;-54
2023/06/06 00:39:46;;;;;;;8.13;6.50;;;13.90;88.20;;;;;;5023807;28;20445;-57
2023/06/06 00:42:11;;;;;;;9.50;7.10;;;13.90;89.10;;;;;;5026430;28;20534;-57
2023/06/06 00:44:37;;;;;;;8.83;7.07;;;13.80;90.50;;;;;;5028728;28;20174;-58
2023/06/06 00:47:03;;;;;;;8.40;7.33;;;13.80;90.80;;;;;;5024412;28;20187;-55
2023/06/06 00:49:28;;;;;;;10.37;7.77;;;13.70;91.60;;;;;;5024589;28;20944;-54
2023/06/06 00:51:55;;;;;;;8.77;7.00;;;13.60;92.60;;;;;;5027350;28;20359;-53
2023/06/06 00:54:21;;;;;;;8.60;7.60;;;13.60;93.10;;;;;;5030039;28;20176;-57
2023/06/06 00:56:49;;;;;;;8.30;6.50;;;13.60;94.30;;;;;;5024215;28;20445;-55
2023/06/06 00:59:15;;;;;;;8.70;6.53;;;13.50;95.20;;;;;;5024899;28;20481;-57
2023/06/06 01:01:42;;;;;;;14.73;7.83;;;13.50;96.50;;;;;;5025626;28;20969;-54
2023/06/06 01:04:10;;;;;;;10.07;7.50;;;13.50;97.20;;;;;;5023970;28;20434;-56
2023/06/06 01:06:37;;;;;;;10.13;7.23;;;13.50;97.90;;;;;;5026852;28;20419;-56
2023/06/06 01:09:04;;;;;;;9.20;6.97;;;13.50;98.30;;;;;;5023648;28;20413;-57
2023/06/06 01:11:52;;;;;;;16.30;7.80;;;13.50;98.80;;;;;;5026902;28;20465;-54
2023/06/06 01:14:29;;;;;;;10.13;6.50;;;13.40;99.30;;;;;;5026885;28;20468;-55
2023/06/06 01:16:57;;;;;;;9.63;6.93;;;13.40;99.90;;;;;;5022462;28;20434;-54
2023/06/06 01:19:29;;;;;;;11.00;6.83;;;13.40;99.90;;;;;;5028471;28;20499;-54
2023/06/06 01:21:56;;;;;;;10.83;6.63;;;13.40;99.90;;;;;;5028216;28;20477;-54
2023/06/06 01:24:24;;;;;;;11.43;7.03;;;13.40;99.90;;;;;;5027672;28;20441;-56
2023/06/06 01:26:50;;;;;;;9.07;7.00;;;13.40;99.90;;;;;;5027839;28;20425;-55
2023/06/06 01:29:15;;;;;;;8.47;6.37;;;13.40;99.90;;;;;;5028746;28;20488;-55
2023/06/06 01:31:44;;;;;;;9.17;7.27;;;13.40;99.90;;;;;;5028247;28;20470;-57
2023/06/06 01:34:20;;;;;;;7.97;6.90;;;13.40;99.90;;;;;;5025878;28;20224;-56
2023/06/06 01:37:12;;;;;;;9.03;6.80;;;13.30;99.90;;;;;;5025458;28;20481;-54
2023/06/06 01:39:43;;;;;;;9.53;6.87;;;13.30;99.90;;;;;;5022299;28;20477;-57
2023/06/06 01:42:09;;;;;;;7.67;6.80;;;13.30;99.90;;;;;;5025828;28;20559;-57
2023/06/06 01:44:37;;;;;;;11.43;7.00;;;13.20;99.90;;;;;;5028081;28;20414;-54
2023/06/06 01:47:04;;;;;;;7.00;6.00;;;13.20;99.90;;;;;;5028324;28;20441;-55
2023/06/06 01:49:30;;;;;;;14.83;7.70;;;13.10;99.90;;;;;;5025822;28;20438;-54
2023/06/06 01:51:56;;;;;;;11.60;7.40;;;13.10;99.90;;;;;;5024509;28;20461;-55
2023/06/06 01:54:22;;;;;;;7.50;6.60;;;13.00;99.90;;;;;;5023335;28;20925;-55
2023/06/06 01:56:48;;;;;;;7.97;6.73;;;13.00;99.90;;;;;;5028583;28;20194;-57
2023/06/06 01:59:14;;;;;;;9.23;6.80;;;13.00;99.90;;;;;;5023396;28;20434;-56
2023/06/06 02:01:40;;;;;;;8.60;6.87;;;12.90;99.90;;;;;;5026469;28;20485;-54
2023/06/06 02:04:05;;;;;;;10.73;7.63;;;12.90;99.90;;;;;;5022121;28;20518;-56
2023/06/06 02:06:32;;;;;;;9.33;7.07;;;12.90;99.90;;;;;;5026103;28;20219;-55
2023/06/06 02:08:58;;;;;;;7.67;6.60;;;12.80;99.90;;;;;;5024150;28;20188;-55
2023/06/06 02:11:23;;;;;;;10.97;7.70;;;12.80;99.90;;;;;;5027006;28;20461;-56
2023/06/06 02:13:51;;;;;;;7.80;6.70;;;12.80;99.90;;;;;;5023206;28;20192;-56
2023/06/06 02:16:17;;;;;;;9.80;6.80;;;12.80;99.90;;;;;;5025348;28;20192;-54
2023/06/06 02:18:44;;;;;;;8.30;6.50;;;12.80;99.90;;;;;;5027242;28;20422;-56
2023/06/06 02:21:12;;;;;;;9.03;6.90;;;12.80;99.90;;;;;;5025013;28;20470;-54
2023/06/06 02:23:38;;;;;;;9.93;7.03;;;12.80;99.90;;;;;;5024450;28;20955;-58
2023/06/06 02:26:03;;;;;;;9.83;7.37;;;12.70;99.90;;;;;;5022474;28;20508;-57
2023/06/06 02:28:30;;;;;;;8.07;6.30;;;12.70;99.90;;;;;;5026774;28;20179;-56
2023/06/06 02:30:56;;;;;;;9.73;7.13;;;12.70;99.90;;;;;;5022770;28;20215;-57
2023/06/06 02:33:22;;;;;;;7.30;6.30;;;12.70;99.90;;;;;;5024735;28;20427;-55
2023/06/06 02:35:49;;;;;;;10.10;6.30;;;12.60;99.90;;;;;;5026721;28;20429;-55
2023/06/06 02:38:14;;;;;;;8.37;7.20;;;12.70;99.90;;;;;;5024601;28;20438;-57
2023/06/06 02:40:40;;;;;;;10.53;6.80;;;12.60;99.90;;;;;;5024303;28;20415;-56
2023/06/06 02:43:06;;;;;;;10.60;7.77;;;12.60;99.90;;;;;;5022266;28;20664;-55
2023/06/06 02:45:31;;;;;;;20.23;7.80;;;12.60;99.90;;;;;;5023723;28;20179;-55
2023/06/06 02:47:57;;;;;;;9.47;6.67;;;12.50;99.90;;;;;;5016914;28;20658;-54
2023/06/06 02:50:22;;;;;;;10.10;6.90;;;12.50;99.90;;;;;;5021752;28;20180;-56
2023/06/06 02:52:49;;;;;;;11.40;6.83;;;12.50;99.90;;;;;;5024120;28;20703;-54
2023/06/06 02:55:14;;;;;;;9.23;7.10;;;12.50;99.90;;;;;;5024957;28;20180;-54
2023/06/06 02:57:40;;;;;;;9.70;7.00;;;12.40;99.90;;;;;;5025161;28;21178;-55
2023/06/06 03:00:10;;;;;;;9.90;7.77;;;12.40;99.90;;;;;;5019226;28;20199;-56
2023/06/06 03:02:36;;;;;;;9.77;7.40;;;12.40;99.90;;;;;;5022185;28;20231;-55
2023/06/06 03:05:03;;;;;;;8.70;7.20;;;12.30;99.90;;;;;;5026738;28;20468;-56
2023/06/06 03:07:28;;;;;;;9.73;7.40;;;12.30;99.90;;;;;;5026692;28;20206;-55
2023/06/06 03:09:54;;;;;;;8.00;6.80;;;12.30;99.90;;;;;;5024812;28;20434;-54
2023/06/06 03:12:20;;;;;;;8.83;6.60;;;12.30;99.90;;;;;;5015056;28;20202;-56
2023/06/06 03:14:46;;;;;;;9.00;7.40;;;12.30;99.90;;;;;;5023794;28;20795;-56
2023/06/06 03:17:11;;;;;;;11.47;7.60;;;12.30;99.90;;;;;;5025302;28;20186;-56
2023/06/06 03:19:37;;;;;;;9.87;6.90;;;12.30;99.90;;;;;;5022527;28;20442;-54
2023/06/06 03:22:03;;;;;;;11.53;7.17;;;12.30;99.90;;;;;;5019541;28;20741;-54
2023/06/06 03:24:29;;;;;;;9.23;7.40;;;12.30;99.90;;;;;;5020311;28;20168;-57
2023/06/06 03:26:56;;;;;;;7.83;6.70;;;12.30;99.90;;;;;;5025299;28;20648;-55
2023/06/06 03:29:21;;;;;;;7.23;6.33;;;12.20;99.90;;;;;;5022578;28;20610;-54
2023/06/06 03:31:50;;;;;;;9.60;6.60;;;12.20;99.90;;;;;;5024416;28;20894;-54
2023/06/06 03:34:15;;;;;;;7.33;5.90;;;12.20;99.90;;;;;;5022619;28;20245;-54
2023/06/06 03:36:41;;;;;;;10.87;7.63;;;12.20;99.90;;;;;;5026893;28;21819;-55
2023/06/06 03:39:07;;;;;;;10.60;7.27;;;12.10;99.90;;;;;;5018094;28;20183;-57
2023/06/06 03:41:32;;;;;;;9.63;6.80;;;12.10;99.90;;;;;;5023925;28;20208;-56
2023/06/06 03:44:00;;;;;;;9.00;6.97;;;12.00;99.90;;;;;;5017984;28;20282;-56
2023/06/06 03:46:26;;;;;;;11.00;7.50;;;12.10;99.90;;;;;;5024422;28;20215;-58
2023/06/06 03:48:52;;;;;;;9.67;7.10;;;12.00;99.90;;;;;;5021004;28;20852;-56
2023/06/06 03:51:17;;;;;;;8.47;7.50;;;12.00;99.90;;;;;;5020046;28;20235;-55
2023/06/06 03:53:43;;;;;;;9.60;8.00;;;12.10;99.90;;;;;;5017822;28;20267;-55
2023/06/06 03:56:09;;;;;;;11.80;6.70;;;12.10;99.90;;;;;;5022974;28;20176;-57
2023/06/06 03:58:36;;;;;;;9.60;7.83;;;12.00;99.90;;;;;;5020801;28;20192;-57
2023/06/06 04:01:02;;;;;;;9.13;7.47;;;12.10;99.90;;;;;;5005247;28;20212;-58
2023/06/06 04:03:27;;;;;;;9.10;7.20;;;12.10;99.90;;;;;;5004789;28;20462;-61
2023/06/06 04:05:53;;;;;;;8.20;7.17;;;12.10;99.90;;;;;;5011264;28;20190;-59
2023/06/06 04:08:20;;;;;;;11.50;7.40;;;12.10;99.90;;;;;;5010776;28;20180;-59
2023/06/06 04:10:45;;;;;;;13.50;7.43;;;12.10;99.90;;;;;;5019330;28;20441;-60
2023/06/06 04:13:11;;;;;;;11.23;8.07;;;12.10;99.90;;;;;;5014887;28;20842;-58
2023/06/06 04:15:37;;;;;;;11.20;7.57;;;12.10;99.90;;;;;;5016009;28;20659;-60
2023/06/06 04:18:04;;;;;;;9.73;8.27;;;12.10;99.90;;;;;;5013926;28;20426;-60
2023/06/06 04:20:32;;;;;;;11.47;8.27;;;12.20;99.90;;;;;;5012546;28;20601;-61
2023/06/06 04:23:00;;;;;;;10.87;8.57;;;12.20;99.90;;;;;;5014515;28;20553;-58
2023/06/06 04:25:25;;;;;;;16.80;8.17;;;12.20;99.90;;;;;;5023382;28;20926;-58
2023/06/06 04:27:51;;;;;;;13.10;7.80;;;12.20;99.90;;;;;;5014227;28;20433;-59
2023/06/06 04:30:23;;;;;;;9.20;7.17;;;12.20;99.90;;;;;;5025169;28;20620;-58
2023/06/06 04:32:49;;;;;;;8.97;7.07;;;12.20;99.90;;;;;;5024694;28;20200;-58
2023/06/06 04:35:15;;;;;;;8.67;6.93;;;12.20;99.90;;;;;;5022017;28;20492;-57
2023/06/06 04:37:41;;;;;;;8.50;6.23;;;12.20;99.90;;;;;;5017828;28;20442;-58
2023/06/06 04:40:11;;;;;;;9.53;7.23;;;12.20;99.90;;;;;;5020153;28;20180;-58
2023/06/06 04:42:37;;;;;;;9.17;7.80;;;12.10;99.90;;;;;;5018118;28;20548;-58
2023/06/06 04:45:03;;;;;;;11.37;7.53;;;12.10;99.90;;;;;;5011700;28;20443;-50
2023/06/06 04:47:35;;;;;;;10.27;6.80;;;12.10;99.90;;;;;;5017749;28;20185;-60
2023/06/06 04:50:01;;;;;;;11.90;7.43;;;12.20;99.90;;;;;;5009848;28;20431;-58
2023/06/06 04:52:28;;;;;;;10.17;7.50;;;12.20;99.90;;;;;;5025451;28;20516;-58
2023/06/06 04:54:55;;;;;;;15.47;8.83;;;12.30;99.90;;;;;;5016410;28;20446;-57
2023/06/06 04:57:21;;;;;;;32.53;12.80;;;12.40;99.90;;;;;;5012343;28;20438;-60
2023/06/06 04:59:51;;;;;;;12.37;8.17;;;12.40;99.90;;;;;;5017203;28;20460;-57
2023/06/06 05:02:26;;;;;;;10.23;7.03;;;12.50;99.90;;;;;;5022198;28;20567;-55
2023/06/06 05:04:53;;;;;;;9.50;7.33;;;12.50;99.90;;;;;;5025348;28;20452;-56
2023/06/06 05:07:23;;;;;;;10.90;6.87;;;12.60;99.90;;;;;;5026470;28;20418;-57
2023/06/06 05:09:48;;;;;;;13.73;7.13;;;12.70;99.90;;;;;;5023186;28;20445;-55
2023/06/06 05:12:14;;;;;;;8.97;7.30;;;12.70;99.90;;;;;;5026315;28;21170;-58
2023/06/06 05:14:40;;;;;;;9.30;6.93;;;12.80;99.90;;;;;;5021674;28;20180;-57
2023/06/06 05:17:05;;;;;;;8.73;7.10;;;12.90;99.90;;;;;;5026011;28;20247;-57
2023/06/06 05:19:31;;;;;;;8.90;7.13;;;13.00;99.90;;;;;;5019084;28;20560;-56
2023/06/06 05:21:57;;;;;;;12.30;7.63;;;13.00;99.90;;;;;;5026052;28;20707;-58
2023/06/06 05:24:22;;;;;;;9.57;7.30;;;13.10;99.90;;;;;;5029258;28;20603;-57
2023/06/06 05:26:48;;;;;;;9.60;6.80;;;13.20;99.90;;;;;;5030849;28;20702;-56
2023/06/06 05:29:14;;;;;;;12.80;7.27;;;13.20;99.90;;;;;;5023510;28;20176;-54
2023/06/06 05:31:39;;;;;;;9.93;7.47;;;13.30;99.90;;;;;;5023530;28;20196;-56
2023/06/06 05:34:05;;;;;;;7.90;6.90;;;13.40;99.90;;;;;;5022400;28;20215;-62
2023/06/06 05:36:30;;;;;;;10.10;7.50;;;13.50;99.90;;;;;;5030223;28;20192;-57
2023/06/06 05:38:56;;;;;;;9.57;7.27;;;13.50;99.90;;;;;;5023916;28;20237;-54
2023/06/06 05:41:22;;;;;;;10.20;6.73;;;13.60;99.90;;;;;;5029454;28;20203;-57
2023/06/06 05:43:49;;;;;;;9.47;7.40;;;13.80;99.90;;;;;;5024491;28;20422;-56
2023/06/06 05:46:14;;;;;;;7.70;6.90;;;13.80;99.90;;;;;;5027627;28;20542;-56
2023/06/06 05:48:40;;;;;;;13.63;6.80;;;13.90;99.90;;;;;;5023547;28;20446;-57
2023/06/06 05:51:07;;;;;;;8.87;7.33;;;14.00;99.90;;;;;;5026922;28;20717;-57
2023/06/06 05:53:33;;;;;;;10.50;8.43;;;14.10;99.90;;;;;;5028666;28;21069;-56
2023/06/06 05:55:58;;;;;;;13.30;7.60;;;14.20;99.90;;;;;;5026059;28;20505;-57
2023/06/06 05:58:24;;;;;;;10.27;8.00;;;14.30;99.90;;;;;;5025655;28;20219;-56
2023/06/06 06:00:50;;;;;;;12.87;8.10;;;14.40;99.90;;;;;;5026126;28;20557;-57
2023/06/06 06:03:15;;;;;;;11.20;8.03;;;14.50;99.90;;;;;;5014337;28;20257;-58
2023/06/06 06:05:41;;;;;;;14.93;8.87;;;14.60;99.90;;;;;;5023592;28;20179;-56
2023/06/06 06:08:07;;;;;;;15.30;8.37;;;14.60;99.90;;;;;;5028959;28;20203;-56
2023/06/06 06:10:35;;;;;;;14.37;9.57;;;14.70;99.90;;;;;;5018892;28;20259;-57
2023/06/06 06:13:02;;;;;;;15.47;9.37;;;14.70;99.90;;;;;;5018645;28;20204;-56
2023/06/06 06:15:32;;;;;;;15.40;9.47;;;14.90;99.90;;;;;;5025007;28;20438;-54
2023/06/06 06:17:58;;;;;;;13.40;9.27;;;14.90;99.90;;;;;;5023975;28;20893;-57
2023/06/06 06:20:24;;;;;;;13.83;8.40;;;15.00;99.90;;;;;;5025773;28;20813;-57
2023/06/06 06:22:50;;;;;;;8.70;6.90;;;15.10;99.90;;;;;;5019329;28;20473;-57
2023/06/06 06:25:19;;;;;;;10.70;7.33;;;15.20;98.60;;;;;;5026535;28;20251;-58
2023/06/06 06:27:46;;;;;;;12.80;6.47;;;15.30;97.80;;;;;;5017242;28;20179;-58
2023/06/06 06:30:12;;;;;;;7.63;6.10;;;15.50;96.40;;;;;;5020404;28;20525;-58
2023/06/06 06:32:40;;;;;;;11.60;5.20;;;15.60;96.00;;;;;;5017502;28;20451;-57
2023/06/06 06:35:07;;;;;;;5.13;3.83;;;15.70;94.90;;;;;;5018320;28;22136;-54
2023/06/06 06:37:37;;;;;;;8.80;4.90;;;15.80;91.80;;;;;;5012859;28;20447;-55
2023/06/06 06:40:09;;;;;;;6.03;3.93;;;16.00;90.40;;;;;;5019800;28;21057;-55
2023/06/06 06:42:39;;;;;;;6.10;4.07;;;16.10;85.90;;;;;;5019767;28;20523;-54
2023/06/06 06:45:07;;;;;;;5.50;4.40;;;16.20;82.40;;;;;;5024396;28;20410;-54
2023/06/06 06:47:33;;;;;;;4.60;3.87;;;16.40;79.50;;;;;;5014413;28;20458;-53
2023/06/06 06:49:59;;;;;;;4.10;3.70;;;16.50;77.30;;;;;;5021110;28;20454;-55
2023/06/06 06:52:25;;;;;;;7.67;4.47;;;16.60;75.60;;;;;;5020284;28;20210;-55
2023/06/06 06:55:00;;;;;;;5.33;3.50;;;16.60;74.70;;;;;;5024871;28;20775;-56
2023/06/06 06:57:26;;;;;;;4.97;3.60;;;16.70;74.10;;;;;;5014511;28;20197;-54
2023/06/06 06:59:52;;;;;;;5.70;3.50;;;16.90;73.00;;;;;;5012938;28;20485;-57
2023/06/06 07:02:19;;;;;;;5.07;3.97;;;17.00;71.60;;;;;;5020336;28;20472;-57
2023/06/06 07:04:47;;;;;;;5.97;4.20;;;17.10;69.60;;;;;;5023605;28;20442;-58
2023/06/06 07:07:17;;;;;;;5.47;3.43;;;17.30;69.10;;;;;;5023575;28;20436;-57
2023/06/06 07:09:43;;;;;;;4.13;3.50;;;17.30;67.20;;;;;;5017998;28;20437;-58
2023/06/06 07:12:11;;;;;;;3.60;3.10;;;17.40;66.00;;;;;;5019870;28;20465;-57
2023/06/06 07:14:36;;;;;;;4.77;3.87;;;17.50;64.70;;;;;;5021265;28;20516;-56
2023/06/06 07:17:03;;;;;;;5.40;3.30;;;17.60;63.70;;;;;;5027593;28;20485;-55
2023/06/06 07:19:28;;;;;;;4.40;3.03;;;17.70;62.70;;;;;;5026402;28;20657;-57
2023/06/06 07:21:56;;;;;;;5.33;3.30;;;17.80;61.90;;;;;;5024871;28;20476;-57
2023/06/06 07:24:22;;;;;;;3.40;3.00;;;17.90;61.50;;;;;;5027459;28;20680;-56
2023/06/06 07:26:48;;;;;;;10.93;3.37;;;18.00;60.90;;;;;;5018972;28;20430;-57
2023/06/06 07:29:13;;;;;;;3.00;2.80;;;18.10;60.70;;;;;;5019866;28;20422;-58
2023/06/06 07:31:39;;;;;;;3.33;3.03;;;18.30;59.90;;;;;;5023849;28;20199;-58
2023/06/06 07:34:05;;;;;;;4.07;3.27;;;18.40;59.30;;;;;;5027503;28;20250;-57
2023/06/06 07:36:30;;;;;;;3.90;3.20;;;18.40;59.00;;;;;;5019748;28;20250;-56
2023/06/06 07:38:57;;;;;;;6.57;3.47;;;18.50;59.00;;;;;;5025977;28;20187;-56
2023/06/06 07:41:26;;;;;;;3.10;2.43;;;18.60;58.80;;;;;;5026594;28;20265;-58
2023/06/06 07:43:51;;;;;;;3.87;3.20;;;18.70;57.80;;;;;;5021653;28;20434;-57
2023/06/06 07:46:17;;;;;;;5.20;3.30;;;18.80;56.10;;;;;;5020134;28;20423;-57
2023/06/06 07:48:43;;;;;;;4.10;3.30;;;18.90;55.70;;;;;;5022037;28;20181;-57
2023/06/06 07:51:08;;;;;;;3.53;3.10;;;19.00;55.70;;;;;;5008574;28;20200;-58
2023/06/06 07:53:34;;;;;;;5.80;3.70;;;19.00;55.00;;;;;;5020736;28;20737;-58
2023/06/06 07:56:00;;;;;;;5.33;3.70;;;19.10;54.30;;;;;;5024413;28;20689;-57
2023/06/06 07:58:41;;;;;;;5.80;3.50;;;19.10;54.10;;;;;;5022563;28;20242;-57
2023/06/06 08:01:10;;;;;;;4.30;3.20;;;19.20;53.90;;;;;;5028125;28;20823;-57
2023/06/06 08:03:36;;;;;;;3.97;3.40;;;19.30;53.60;;;;;;5027476;28;20920;-56
2023/06/06 08:06:02;;;;;;;4.10;3.37;;;19.30;53.40;;;;;;5028019;28;20432;-56
2023/06/06 08:08:28;;;;;;;5.10;4.10;;;19.40;53.40;;;;;;5024544;28;20889;-56
2023/06/06 08:10:54;;;;;;;6.27;3.47;;;19.40;53.20;;;;;;5024854;28;20179;-57
2023/06/06 08:13:20;;;;;;;5.57;3.70;;;19.50;53.00;;;;;;5028503;28;20183;-57
2023/06/06 08:15:46;;;;;;;4.90;3.40;;;19.60;52.60;;;;;;5031469;28;20526;-57
2023/06/06 08:18:15;;;;;;;3.53;3.07;;;19.60;51.40;;;;;;5024992;28;20454;-58
2023/06/06 08:20:41;;;;;;;8.70;3.30;;;19.70;50.90;;;;;;5027237;28;20466;-56
2023/06/06 08:23:06;;;;;;;14.80;3.63;;;19.80;50.80;;;;;;5025657;28;20532;-57
2023/06/06 08:25:33;;;;;;;7.40;3.43;;;19.90;51.40;;;;;;5028342;28;20187;-57
2023/06/06 08:27:59;;;;;;;5.10;3.63;;;19.90;51.30;;;;;;5024443;28;20195;-56
2023/06/06 08:30:25;;;;;;;6.03;3.63;;;20.00;50.90;;;;;;5026473;28;20516;-57
2023/06/06 08:32:51;;;;;;;5.87;3.90;;;20.00;51.00;;;;;;5020814;28;20211;-57
2023/06/06 08:35:19;;;;;;;3.73;3.33;;;20.10;50.40;;;;;;5028433;28;20183;-56
2023/06/06 08:37:47;;;;;;;6.40;3.53;;;20.20;49.90;;;;;;5024935;28;20955;-56
2023/06/06 08:40:12;;;;;;;7.53;4.00;;;20.20;49.60;;;;;;5020917;28;20918;-56
2023/06/06 08:42:43;;;;;;;8.60;3.67;;;20.30;49.10;;;;;;5022919;28;20463;-56
2023/06/06 08:45:09;;;;;;;6.07;3.40;;;20.40;48.80;;;;;;5024982;28;20176;-57
2023/06/06 08:47:36;;;;;;;4.70;3.70;;;20.40;48.10;;;;;;5024549;28;20430;-57
2023/06/06 08:50:04;;;;;;;5.50;3.40;;;20.40;47.70;;;;;;5021953;28;20430;-56
2023/06/06 08:52:33;;;;;;;4.30;3.50;;;20.50;48.30;;;;;;5014447;28;20465;-55
2023/06/06 08:54:59;;;;;;;6.60;4.33;;;20.60;48.20;;;;;;5012589;28;20435;-57
2023/06/06 08:57:26;;;;;;;3.10;2.80;;;20.70;46.00;;;;;;5010291;28;20441;-54
2023/06/06 08:59:52;;;;;;;4.77;3.50;;;20.70;46.40;;;;;;5015650;28;20184;-56
2023/06/06 09:02:17;;;;;;;5.70;3.37;;;20.80;47.10;;;;;;5019906;28;20855;-56
2023/06/06 09:04:44;;;;;;;4.73;3.80;;;20.80;47.90;;;;;;5026453;28;20950;-57
2023/06/06 09:07:14;;;;;;;7.70;3.67;;;20.90;48.20;;;;;;5015855;28;20180;-57
2023/06/06 09:09:42;;;;;;;5.10;3.43;;;20.90;48.00;;;;;;5024552;28;20927;-56
2023/06/06 09:12:09;;;;;;;4.03;3.43;;;21.00;46.80;;;;;;5024370;28;21184;-56
2023/06/06 09:14:35;;;;;;;4.10;3.10;;;21.10;46.80;;;;;;5022446;28;20438;-56
2023/06/06 09:17:01;;;;;;;4.90;3.27;;;21.20;45.70;;;;;;5020703;28;20531;-55
2023/06/06 09:19:27;;;;;;;5.73;3.23;;;21.30;45.50;;;;;;5024916;28;20873;-57
2023/06/06 09:21:53;;;;;;;10.73;3.60;;;21.40;45.60;;;;;;5023719;28;21045;-55
2023/06/06 09:24:19;;;;;;;4.90;3.77;;;21.40;45.30;;;;;;5015814;28;20177;-54
2023/06/06 09:26:45;;;;;;;5.77;3.33;;;21.50;45.00;;;;;;5019562;28;20199;-58
2023/06/06 09:29:11;;;;;;;5.80;3.90;;;21.50;45.30;;;;;;5023035;28;20967;-57
2023/06/06 09:31:38;;;;;;;4.93;3.30;;;21.60;45.80;;;;;;5023740;28;20818;-56
2023/06/06 09:34:05;;;;;;;5.00;3.47;;;21.80;45.00;;;;;;5027785;28;20426;-56
2023/06/06 09:36:33;;;;;;;3.77;3.23;;;21.90;44.80;;;;;;5022236;28;20442;-58
2023/06/06 09:39:17;;;;;;;6.03;3.43;;;21.90;44.40;;;;;;5022060;28;20445;-57
2023/06/06 09:41:48;;;;;;;5.07;3.40;;;22.00;43.80;;;;;;5016898;28;20834;-57
2023/06/06 09:44:20;;;;;;;4.30;3.37;;;22.00;40.30;;;;;;5016261;28;20520;-58
2023/06/06 09:46:50;;;;;;;5.03;3.30;;;22.00;42.00;;;;;;5022265;28;20454;-55
2023/06/06 09:49:17;;;;;;;5.47;3.53;;;22.10;43.50;;;;;;5015856;28;20435;-57
2023/06/06 09:51:43;;;;;;;6.80;3.73;;;22.20;45.00;;;;;;5016831;28;20458;-60
2023/06/06 09:54:10;;;;;;;6.73;4.10;;;22.40;45.10;;;;;;5017641;28;20930;-58
2023/06/06 09:56:40;;;;;;;12.87;4.20;;;22.50;44.50;;;;;;5014529;28;20438;-57
2023/06/06 09:59:07;;;;;;;5.30;3.10;;;22.60;44.20;;;;;;5015766;28;20624;-55
2023/06/06 10:01:35;;;;;;;4.93;3.60;;;22.70;45.30;;;;;;5011262;28;21025;-56
2023/06/06 10:04:03;;;;;;;5.90;3.40;;;22.70;45.20;;;;;;5022985;28;20477;-55
2023/06/06 10:06:37;;;;;;;9.50;3.90;;;22.90;45.20;;;;;;5022983;28;20552;-56
2023/06/06 10:09:05;;;;;;;4.03;3.57;;;22.90;44.60;;;;;;5023351;28;20780;-54
2023/06/06 10:11:32;;;;;;;5.33;3.60;;;23.00;45.60;;;;;;5020228;28;20939;-56
2023/06/06 10:13:58;;;;;;;5.20;3.30;;;23.10;44.10;;;;;;5028673;28;20413;-54
2023/06/06 10:16:28;;;;;;;8.20;3.67;;;23.00;43.70;;;;;;5015210;28;20435;-54
2023/06/06 10:18:56;;;;;;;3.50;3.20;;;23.10;43.90;;;;;;5012045;28;20434;-55
2023/06/06 10:21:23;;;;;;;5.70;4.17;;;23.20;43.20;;;;;;5018852;28;20470;-57
2023/06/06 10:23:48;;;;;;;4.40;4.00;;;23.30;43.80;;;;;;5023277;28;20438;-56
2023/06/06 10:26:45;;;;;;;6.40;4.00;;;23.50;44.10;;;;;;5017111;28;21424;-57
2023/06/06 10:29:36;;;;;;;4.87;4.00;;;23.60;43.60;;;;;;5015365;28;20604;-57
2023/06/06 10:32:12;;;;;;;5.00;3.47;;;23.70;43.40;;;;;;5021405;28;20458;-59
2023/06/06 10:34:40;;;;;;;4.87;4.03;;;23.80;43.10;;;;;;5024108;28;20414;-56
2023/06/06 10:37:21;;;;;;;4.53;3.93;;;24.00;42.80;;;;;;5014687;28;20468;-56
2023/06/06 10:39:58;;;;;;;5.70;3.90;;;24.10;42.40;;;;;;5016065;28;20526;-56
2023/06/06 10:42:35;;;;;;;5.43;4.23;;;24.20;42.50;;;;;;5024248;28;20507;-57
2023/06/06 10:45:01;;;;;;;5.40;3.47;;;24.40;42.10;;;;;;5022801;28;20513;-56
2023/06/06 10:47:40;;;;;;;8.07;4.40;;;24.50;41.40;;;;;;5022284;28;20474;-57
2023/06/06 10:50:12;;;;;;;4.53;3.83;;;24.60;42.80;;;;;;5019878;28;20180;-57
2023/06/06 10:52:41;;;;;;;4.70;3.77;;;24.70;42.50;;;;;;5020351;28;20450;-56
2023/06/06 10:55:19;;;;;;;5.67;4.00;;;24.70;41.60;;;;;;5015716;28;20445;-59
2023/06/06 10:58:03;;;;;;;10.13;3.93;;;24.40;42.10;;;;;;5015446;28;20441;-56
2023/06/06 11:00:32;;;;;;;8.80;3.90;;;24.00;40.50;;;;;;5015683;28;20538;-54
2023/06/06 11:03:04;;;;;;;3.97;3.57;;;23.60;41.40;;;;;;5015117;28;20683;-57
2023/06/06 11:05:29;;;;;;;5.00;4.00;;;23.40;41.40;;;;;;5018935;28;20437;-56
2023/06/06 11:07:57;;;;;;;4.67;3.50;;;23.20;41.70;;;;;;5020945;28;20426;-56
2023/06/06 11:10:23;;;;;;;6.13;4.43;;;23.20;42.40;;;;;;5016445;28;20266;-56
2023/06/06 11:12:50;;;;;;;7.73;4.73;;;23.00;42.40;;;;;;5018160;28;20812;-56
2023/06/06 11:15:32;;;;;;;4.77;3.63;;;22.90;43.20;;;;;;5023315;28;20427;-56
2023/06/06 11:18:03;;;;;;;4.33;3.80;;;22.70;43.90;;;;;;5025836;28;20437;-57
2023/06/06 11:20:39;;;;;;;7.40;4.00;;;22.40;44.10;;;;;;5017092;28;20473;-57
2023/06/06 11:23:05;;;;;;;14.23;4.20;;;22.30;44.70;;;;;;5013007;28;20466;-57
2023/06/06 11:25:38;;;;;;;5.33;3.90;;;22.40;45.00;;;;;;5018877;28;20422;-57
2023/06/06 11:28:05;;;;;;;4.53;4.13;;;22.60;45.40;;;;;;5013004;28;20428;-56
2023/06/06 11:30:34;;;;;;;6.13;4.30;;;23.00;44.50;;;;;;5018779;28;20439;-58
2023/06/06 11:33:01;;;;;;;9.23;4.43;;;23.50;44.60;;;;;;5015400;28;20456;-58
2023/06/06 11:35:32;;;;;;;11.57;5.67;;;24.00;45.20;;;;;;5019506;28;20440;-56
2023/06/06 11:37:58;;;;;;;7.80;4.30;;;24.40;44.10;;;;;;5019856;28;20461;-57
2023/06/06 11:40:28;;;;;;;5.83;4.10;;;24.70;41.40;;;;;;5023325;28;21245;-58
2023/06/06 11:42:54;;;;;;;9.40;4.17;;;24.70;40.10;;;;;;5024315;28;20480;-55
2023/06/06 11:45:20;;;;;;;5.00;4.03;;;24.50;39.60;;;;;;5024153;28;20418;-57
2023/06/06 11:47:46;;;;;;;4.57;3.53;;;24.30;39.80;;;;;;5021789;28;20539;-57
2023/06/06 11:50:12;;;;;;;4.53;3.63;;;24.00;37.10;;;;;;5029213;28;20891;-57
2023/06/06 11:52:49;;;;;;;4.10;3.30;;;23.70;37.50;;;;;;5022115;28;20462;-57
2023/06/06 11:55:15;;;;;;;4.60;4.10;;;23.50;38.10;;;;;;5024962;28;20426;-57
2023/06/06 11:57:41;;;;;;;5.57;3.70;;;23.50;39.60;;;;;;5023511;28;20508;-57
2023/06/06 12:00:16;;;;;;;5.37;3.87;;;23.60;40.40;;;;;;5027282;28;20448;-57
2023/06/06 12:02:45;;;;;;;7.20;3.90;;;23.60;41.30;;;;;;5024107;28;20465;-57
2023/06/06 12:05:22;;;;;;;5.93;3.90;;;23.60;40.50;;;;;;5019193;28;20419;-55
2023/06/06 12:07:51;;;;;;;5.30;4.00;;;23.50;40.50;;;;;;5026190;28;20425;-57
2023/06/06 12:10:24;;;;;;;6.50;4.27;;;23.40;40.80;;;;;;5023035;28;20492;-57
2023/06/06 12:12:49;;;;;;;6.27;3.80;;;23.60;43.10;;;;;;5018627;28;20454;-56
2023/06/06 12:15:15;;;;;;;4.27;3.70;;;24.00;42.70;;;;;;5020987;28;20434;-57
2023/06/06 12:17:41;;;;;;;5.27;4.33;;;24.00;40.60;;;;;;5024927;28;20591;-57
2023/06/06 12:20:07;;;;;;;9.43;3.37;;;24.10;41.00;;;;;;5027471;28;20719;-56
2023/06/06 12:22:35;;;;;;;4.20;3.70;;;24.40;41.90;;;;;;5017768;28;20195;-55
2023/06/06 12:25:02;;;;;;;5.47;3.80;;;24.90;41.40;;;;;;5025137;28;20471;-57
2023/06/06 12:27:36;;;;;;;4.97;3.97;;;25.40;39.80;;;;;;5021783;28;20441;-57
2023/06/06 12:30:03;;;;;;;5.63;4.50;;;25.60;37.90;;;;;;5012917;28;20442;-58
2023/06/06 12:32:32;;;;;;;4.60;3.60;;;25.60;37.10;;;;;;5019259;28;20994;-57
2023/06/06 12:35:01;;;;;;;5.80;3.87;;;25.50;37.70;;;;;;5022931;28;20444;-57
2023/06/06 12:37:45;;;;;;;8.57;3.63;;;25.50;39.00;;;;;;5014779;28;20799;-57
2023/06/06 12:40:17;;;;;;;5.60;4.03;;;25.80;40.00;;;;;;5017072;28;21043;-57
2023/06/06 12:42:56;;;;;;;8.10;3.77;;;26.20;40.20;;;;;;5016391;28;20502;-57
2023/06/06 12:45:24;;;;;;;6.13;3.10;;;26.60;39.60;;;;;;5025811;28;20546;-58